Aurora, Nevada
Current Conditions -  °F | °C
As of 3:52 AM on Saturday 01 Nov 2014 (Local Time) from KBAN Reporting Station
Overcast Overcast  
Wind Chill: 28°   Ceiling: 5000
Heat Index: 36°   Visibility: NA
Dew Point: 27°   Wind: 10mph
Humidity: 70%   Direction: 210°SSW
Pressure: 29.63"   Gusts: NA
Location:  38.7596°N, 119.34°W
Report Text: KBAN 011052Z AUTO 21009KT SCT036 BKN050 OVC070 02/M03 A2963 RMK AO2 SNB25E45 SLP990 P0000 T00221028 FZRANO $
Loading
Personal Weather Stations






























Interactive Weather Map
Tropical Storm Tracking
New forecast layout! Learn more

10-Day Weather Forecast

Advertisements
Track Severe Weather on mobile